createdAt,value
2023-11-27T00:00:54.762Z,3.53
2023-11-27T00:03:22.319Z,3.65
2023-11-27T00:05:50.008Z,3.60
2023-11-27T00:08:17.525Z,3.42
2023-11-27T00:10:44.953Z,4.00
2023-11-27T00:13:12.529Z,4.10
2023-11-27T00:15:40.080Z,4.13
2023-11-27T00:18:07.692Z,3.90
2023-11-27T00:20:35.404Z,3.70
2023-11-27T00:23:03.048Z,3.80
2023-11-27T00:25:30.579Z,3.97
2023-11-27T00:27:58.121Z,3.75
2023-11-27T00:30:25.656Z,3.83
2023-11-27T00:32:53.187Z,3.92
2023-11-27T00:35:20.705Z,3.88
2023-11-27T00:37:49.579Z,3.78
2023-11-27T00:40:17.166Z,3.90
2023-11-27T00:42:45.252Z,4.05
2023-11-27T00:45:14.399Z,4.00
2023-11-27T00:47:42.077Z,4.13
2023-11-27T00:50:09.893Z,4.57
2023-11-27T00:52:37.483Z,4.00
2023-11-27T00:55:05.093Z,3.97
2023-11-27T00:57:32.729Z,3.78
2023-11-27T01:00:00.522Z,3.95
2023-11-27T01:02:28.186Z,3.80
2023-11-27T01:04:55.878Z,3.70
2023-11-27T01:07:23.551Z,3.90
2023-11-27T01:09:52.349Z,3.85
2023-11-27T01:12:19.850Z,4.03
2023-11-27T01:14:47.346Z,3.97
2023-11-27T01:17:14.875Z,4.15
2023-11-27T01:19:42.367Z,3.83
2023-11-27T01:22:09.894Z,3.90
2023-11-27T01:24:37.840Z,3.30
2023-11-27T01:27:05.566Z,3.30
2023-11-27T01:29:33.116Z,3.35
2023-11-27T01:32:00.700Z,3.65
2023-11-27T01:34:28.227Z,3.75
2023-11-27T01:36:55.839Z,3.60
2023-11-27T01:39:24.139Z,3.58
2023-11-27T01:41:52.189Z,3.45
2023-11-27T01:44:19.682Z,3.50
2023-11-27T01:46:49.086Z,3.35
2023-11-27T01:49:21.582Z,3.58
2023-11-27T01:51:51.627Z,3.45
2023-11-27T01:54:19.444Z,3.67
2023-11-27T01:56:49.178Z,3.50
2023-11-27T01:59:17.423Z,3.30
2023-11-27T02:01:45.604Z,3.47
2023-11-27T02:04:13.177Z,3.45
2023-11-27T02:06:40.898Z,3.75
2023-11-27T02:09:09.252Z,3.40
2023-11-27T02:11:48.594Z,3.80
2023-11-27T02:14:16.925Z,3.83
2023-11-27T02:16:45.430Z,3.78
2023-11-27T02:19:13.369Z,3.53
2023-11-27T02:21:41.463Z,3.75
2023-11-27T02:24:09.115Z,3.75
2023-11-27T02:26:36.658Z,3.63
2023-11-27T02:29:04.686Z,3.50
2023-11-27T02:31:32.716Z,3.60
2023-11-27T02:34:00.317Z,3.78
2023-11-27T02:36:28.236Z,3.38
2023-11-27T02:38:55.841Z,3.70
2023-11-27T02:41:25.304Z,3.40
2023-11-27T02:43:52.963Z,3.58
2023-11-27T02:46:20.544Z,3.20
2023-11-27T02:48:48.776Z,3.58
2023-11-27T02:51:16.538Z,3.50
2023-11-27T02:53:44.061Z,3.60
2023-11-27T02:56:12.576Z,3.53
2023-11-27T02:58:40.054Z,3.50
2023-11-27T03:01:10.775Z,3.90
2023-11-27T03:03:38.775Z,3.65
2023-11-27T03:06:08.463Z,3.70
2023-11-27T03:08:36.565Z,3.50
2023-11-27T03:11:04.324Z,3.63
2023-11-27T03:13:31.846Z,3.10
2023-11-27T03:15:59.449Z,3.38
2023-11-27T03:18:26.970Z,3.55
2023-11-27T03:20:54.735Z,3.20
2023-11-27T03:23:22.656Z,3.38
2023-11-27T03:25:50.291Z,3.72
2023-11-27T03:28:17.950Z,3.42
2023-11-27T03:30:45.502Z,3.40
2023-11-27T03:33:13.036Z,3.78
2023-11-27T03:35:40.507Z,3.25
2023-11-27T03:38:08.021Z,3.67
2023-11-27T03:40:35.573Z,3.60
2023-11-27T03:43:03.076Z,3.55
2023-11-27T03:45:30.729Z,3.22
2023-11-27T03:47:58.698Z,3.60
2023-11-27T03:50:26.293Z,3.55
2023-11-27T03:52:55.773Z,3.90
2023-11-27T03:55:25.710Z,3.75
2023-11-27T03:57:53.431Z,4.63
2023-11-27T04:00:20.966Z,3.80
2023-11-27T04:02:48.664Z,3.70
2023-11-27T04:05:18.340Z,3.78
2023-11-27T04:07:45.964Z,3.40
2023-11-27T04:10:17.801Z,3.30
2023-11-27T04:12:46.812Z,3.88
2023-11-27T04:15:17.631Z,3.90
2023-11-27T04:17:45.214Z,3.85
2023-11-27T04:20:13.260Z,4.65
2023-11-27T04:22:41.350Z,3.53
2023-11-27T04:25:09.139Z,4.00
2023-11-27T04:27:36.826Z,3.65
2023-11-27T04:30:06.308Z,3.90
2023-11-27T04:32:34.575Z,3.97
2023-11-27T04:35:02.151Z,3.60
2023-11-27T04:37:29.780Z,3.70
2023-11-27T04:39:57.386Z,3.67
2023-11-27T04:42:28.234Z,4.00
2023-11-27T04:44:55.740Z,3.67
2023-11-27T04:47:23.351Z,4.00
2023-11-27T04:49:50.973Z,4.32
2023-11-27T04:52:19.967Z,3.63
2023-11-27T04:54:48.652Z,3.95
2023-11-27T04:57:16.179Z,3.78
2023-11-27T04:59:43.733Z,4.90
2023-11-27T05:02:11.323Z,4.50
2023-11-27T05:04:39.125Z,3.60
2023-11-27T05:07:06.717Z,3.80
2023-11-27T05:09:34.871Z,3.78
2023-11-27T05:12:02.436Z,3.90
2023-11-27T05:14:29.953Z,3.80
2023-11-27T05:16:58.351Z,4.00
2023-11-27T05:19:26.033Z,3.75
2023-11-27T05:21:53.634Z,4.10
2023-11-27T05:24:21.156Z,3.72
2023-11-27T05:26:49.072Z,4.07
2023-11-27T05:29:16.578Z,3.78
2023-11-27T05:31:44.171Z,4.03
2023-11-27T05:34:12.366Z,3.65
2023-11-27T05:36:39.974Z,3.55
2023-11-27T05:39:07.561Z,3.58
2023-11-27T05:41:35.108Z,4.00
2023-11-27T05:44:05.128Z,3.67
2023-11-27T05:46:32.775Z,3.80
2023-11-27T05:49:00.579Z,3.70
2023-11-27T05:51:28.549Z,4.40
2023-11-27T05:53:58.779Z,4.25
2023-11-27T05:56:26.673Z,4.28
2023-11-27T05:58:55.371Z,4.13
2023-11-27T06:01:22.867Z,4.30
2023-11-27T06:03:50.405Z,4.40
2023-11-27T06:06:21.571Z,4.20
2023-11-27T06:08:51.047Z,3.55
2023-11-27T06:11:18.822Z,3.92
2023-11-27T06:13:46.353Z,4.35
2023-11-27T06:16:13.914Z,4.57
2023-11-27T06:18:41.911Z,4.00
2023-11-27T06:21:12.292Z,4.50
2023-11-27T06:23:39.794Z,3.92
2023-11-27T06:26:07.498Z,4.22
2023-11-27T06:28:35.080Z,3.92
2023-11-27T06:31:03.552Z,3.92
2023-11-27T06:33:31.289Z,3.65
2023-11-27T06:35:59.172Z,4.25
2023-11-27T06:38:26.757Z,4.20
2023-11-27T06:40:54.376Z,3.72
2023-11-27T06:43:22.097Z,3.95
2023-11-27T06:45:49.722Z,3.80
2023-11-27T06:48:17.531Z,3.75
2023-11-27T06:50:45.135Z,3.70
2023-11-27T06:53:13.201Z,4.20
2023-11-27T06:55:40.869Z,3.80
2023-11-27T06:58:09.154Z,3.75
2023-11-27T07:00:38.637Z,4.20
2023-11-27T07:03:07.043Z,3.50
2023-11-27T07:05:34.776Z,3.72
2023-11-27T07:08:02.418Z,3.83
2023-11-27T07:10:30.524Z,3.55
2023-11-27T07:12:58.384Z,3.50
2023-11-27T07:15:26.028Z,3.53
2023-11-27T07:18:03.163Z,3.47
2023-11-27T07:20:38.625Z,3.95
2023-11-27T07:23:06.198Z,3.83
2023-11-27T07:25:33.732Z,3.90
2023-11-27T07:28:01.271Z,3.53
2023-11-27T07:30:31.806Z,3.60
2023-11-27T07:32:59.589Z,3.50
2023-11-27T07:35:27.118Z,4.45
2023-11-27T07:37:54.638Z,4.20
2023-11-27T07:40:22.412Z,3.88
2023-11-27T07:42:50.013Z,3.88
2023-11-27T07:45:17.464Z,3.80
2023-11-27T07:47:45.036Z,4.03
2023-11-27T07:50:12.747Z,3.20
2023-11-27T07:52:40.351Z,3.75
2023-11-27T07:55:08.650Z,3.70
2023-11-27T07:57:36.274Z,3.42
2023-11-27T08:00:08.281Z,4.30
2023-11-27T08:02:40.232Z,3.85
2023-11-27T08:05:10.264Z,3.90
2023-11-27T08:07:38.111Z,3.50
2023-11-27T08:10:05.879Z,4.15
2023-11-27T08:12:33.560Z,4.03
2023-11-27T08:15:01.067Z,3.83
2023-11-27T08:17:29.331Z,3.88
2023-11-27T08:19:56.921Z,4.00
2023-11-27T08:22:24.553Z,3.80
2023-11-27T08:24:52.121Z,3.50
2023-11-27T08:27:26.196Z,3.40
2023-11-27T08:29:54.182Z,3.40
2023-11-27T08:32:21.698Z,3.38
2023-11-27T08:34:50.368Z,3.95
2023-11-27T08:37:18.592Z,3.60
2023-11-27T08:39:46.316Z,3.35
2023-11-27T08:42:13.886Z,3.30
2023-11-27T08:44:41.387Z,3.20
2023-11-27T08:47:08.936Z,3.60
2023-11-27T08:49:36.525Z,3.50
2023-11-27T08:52:04.304Z,3.25
2023-11-27T08:54:33.983Z,3.40
2023-11-27T08:57:01.652Z,3.22
2023-11-27T08:59:29.115Z,3.70
2023-11-27T09:01:57.455Z,3.60
2023-11-27T09:04:25.168Z,2.92
2023-11-27T09:06:52.714Z,3.13
2023-11-27T09:09:20.289Z,3.80
2023-11-27T09:11:48.468Z,3.58
2023-11-27T09:14:15.908Z,3.40
2023-11-27T09:16:44.201Z,3.03
2023-11-27T09:19:13.161Z,3.30
2023-11-27T09:21:40.752Z,3.40
2023-11-27T09:24:08.269Z,3.45
2023-11-27T09:26:35.828Z,3.60
2023-11-27T09:29:03.635Z,3.25
2023-11-27T09:31:31.260Z,3.20
2023-11-27T09:33:58.831Z,3.22
2023-11-27T09:36:27.823Z,3.63
2023-11-27T09:38:55.624Z,2.83
2023-11-27T09:41:23.156Z,3.17
2023-11-27T09:43:51.067Z,2.90
2023-11-27T09:46:20.173Z,2.83
2023-11-27T09:48:49.409Z,2.42
2023-11-27T09:51:17.849Z,2.38
2023-11-27T09:53:49.023Z,2.15
2023-11-27T09:56:16.873Z,2.53
2023-11-27T09:58:44.430Z,2.50
2023-11-27T10:03:44.409Z,2.53
2023-11-27T10:06:13.194Z,2.30
2023-11-27T10:08:41.254Z,2.60
2023-11-27T10:11:08.973Z,2.03
2023-11-27T10:13:46.585Z,2.50
2023-11-27T10:16:24.978Z,2.53
2023-11-27T10:18:55.825Z,2.67
2023-11-27T10:21:23.510Z,2.55
2023-11-27T10:23:54.966Z,2.60
2023-11-27T10:26:22.563Z,2.40
2023-11-27T10:28:51.928Z,2.47
2023-11-27T10:31:20.481Z,2.53
2023-11-27T10:33:48.023Z,2.47
2023-11-27T10:36:18.790Z,2.83
2023-11-27T10:38:46.372Z,2.67
2023-11-27T10:41:15.580Z,2.75
2023-11-27T10:43:43.559Z,3.60
2023-11-27T10:46:11.335Z,2.28
2023-11-27T10:48:44.496Z,2.53
2023-11-27T10:51:16.656Z,2.60
2023-11-27T10:53:50.580Z,2.60
2023-11-27T10:56:20.618Z,2.50
2023-11-27T10:58:51.659Z,2.60
2023-11-27T11:01:21.837Z,2.40
2023-11-27T11:03:51.324Z,2.35
2023-11-27T11:06:20.977Z,2.20
2023-11-27T11:08:50.994Z,2.28
2023-11-27T11:11:19.925Z,2.35
2023-11-27T11:13:49.059Z,2.50
2023-11-27T11:16:16.560Z,2.10
2023-11-27T11:18:46.925Z,2.38
2023-11-27T11:21:15.562Z,2.38
2023-11-27T11:24:00.517Z,2.47
2023-11-27T11:26:48.369Z,2.50
2023-11-27T11:29:28.516Z,2.70
2023-11-27T11:32:04.863Z,2.47
2023-11-27T11:34:34.312Z,2.20
2023-11-27T11:37:04.731Z,2.15
2023-11-27T11:39:33.832Z,2.10
2023-11-27T11:42:02.963Z,2.20
2023-11-27T11:44:37.536Z,2.78
2023-11-27T11:47:09.807Z,1.95
2023-11-27T11:49:37.627Z,2.00
2023-11-27T11:52:16.988Z,2.00
2023-11-27T11:54:48.835Z,1.90
2023-11-27T11:57:25.322Z,1.75
2023-11-27T11:59:53.297Z,1.77
2023-11-27T12:02:21.762Z,1.52
2023-11-27T12:04:52.764Z,1.60
2023-11-27T12:07:23.311Z,1.67
2023-11-27T12:09:52.639Z,2.00
2023-11-27T12:12:23.800Z,1.60
2023-11-27T12:14:55.628Z,1.75
2023-11-27T12:17:23.265Z,1.63
2023-11-27T12:19:51.696Z,1.98
2023-11-27T12:22:20.673Z,1.80
2023-11-27T12:24:48.698Z,1.80
2023-11-27T12:27:16.577Z,1.52
2023-11-27T12:29:49.840Z,2.00
2023-11-27T12:32:21.719Z,1.77
2023-11-27T12:34:49.480Z,1.88
2023-11-27T12:37:16.975Z,1.80
2023-11-27T12:39:44.541Z,1.70
2023-11-27T12:42:15.546Z,1.88
2023-11-27T12:44:50.034Z,1.50
2023-11-27T12:47:21.071Z,2.30
2023-11-27T12:49:55.918Z,1.60
2023-11-27T12:52:25.131Z,1.30
2023-11-27T12:54:56.781Z,1.63
2023-11-27T12:57:24.845Z,1.10
2023-11-27T12:59:52.423Z,1.55
2023-11-27T13:02:23.072Z,2.55
2023-11-27T13:04:55.480Z,1.70
2023-11-27T13:07:23.597Z,1.52
2023-11-27T13:09:56.550Z,1.60
2023-11-27T13:12:27.198Z,1.75
2023-11-27T13:14:55.093Z,2.95
2023-11-27T13:17:24.752Z,2.80
2023-11-27T13:19:57.003Z,2.30
2023-11-27T13:22:33.069Z,2.28
2023-11-27T13:25:06.999Z,1.98
2023-11-27T13:27:35.420Z,1.60
2023-11-27T13:30:03.068Z,2.17
2023-11-27T13:32:30.756Z,2.15
2023-11-27T13:34:58.917Z,2.60
2023-11-27T13:37:28.305Z,3.25
2023-11-27T13:39:58.772Z,2.20
2023-11-27T13:42:29.684Z,1.77
2023-11-27T13:44:57.267Z,2.13
2023-11-27T13:47:24.759Z,2.80
2023-11-27T13:49:58.811Z,2.42
2023-11-27T13:52:34.110Z,2.65
2023-11-27T13:57:32.062Z,2.00
2023-11-27T14:00:00.725Z,2.10
2023-11-27T14:02:30.114Z,2.22
2023-11-27T14:05:21.711Z,2.22
2023-11-27T14:07:52.161Z,1.90
2023-11-27T14:10:44.977Z,2.00
2023-11-27T14:13:16.747Z,2.83
2023-11-27T14:15:49.112Z,2.90
2023-11-27T14:18:23.789Z,1.90
2023-11-27T14:21:10.774Z,3.60
2023-11-27T14:23:41.491Z,4.88
2023-11-27T14:26:09.424Z,5.70
2023-11-27T14:28:49.933Z,5.68
2023-11-27T14:31:20.623Z,3.70
2023-11-27T14:33:48.260Z,4.28
2023-11-27T14:36:16.499Z,3.60
2023-11-27T14:38:44.840Z,2.35
2023-11-27T14:41:16.729Z,2.55
2023-11-27T14:43:44.736Z,2.38
2023-11-27T14:46:16.126Z,2.58
2023-11-27T14:48:44.539Z,2.45
2023-11-27T14:51:12.222Z,2.10
2023-11-27T14:53:45.870Z,2.38
2023-11-27T14:56:15.368Z,2.15
2023-11-27T14:58:42.987Z,2.30
2023-11-27T15:01:15.622Z,2.28
2023-11-27T15:03:46.371Z,2.10
2023-11-27T15:06:14.919Z,2.80
2023-11-27T15:08:42.367Z,3.03
2023-11-27T15:11:12.121Z,2.80
2023-11-27T15:13:45.399Z,3.85
2023-11-27T15:16:18.227Z,4.18
2023-11-27T15:18:47.885Z,4.07
2023-11-27T15:21:15.410Z,3.25
2023-11-27T15:23:43.847Z,3.15
2023-11-27T15:26:14.574Z,3.00
2023-11-27T15:28:48.597Z,2.83
2023-11-27T15:31:22.211Z,3.22
2023-11-27T15:33:50.176Z,2.88
2023-11-27T15:36:18.201Z,3.17
2023-11-27T15:38:45.946Z,3.03
2023-11-27T15:41:14.211Z,2.88
2023-11-27T15:43:43.282Z,2.90
2023-11-27T15:46:12.824Z,2.90
2023-11-27T15:48:40.948Z,2.88
2023-11-27T15:51:09.395Z,2.90
2023-11-27T15:53:37.035Z,3.20
2023-11-27T15:56:09.952Z,3.40
2023-11-27T15:58:38.208Z,3.03
2023-11-27T16:01:05.993Z,4.63
2023-11-27T16:03:33.631Z,3.03
2023-11-27T16:06:03.316Z,3.17
2023-11-27T16:08:30.898Z,3.40
2023-11-27T16:11:00.801Z,3.60
2023-11-27T16:13:28.527Z,3.47
2023-11-27T16:15:56.652Z,3.90
2023-11-27T16:18:31.112Z,3.50
2023-11-27T16:21:00.262Z,3.85
2023-11-27T16:23:28.408Z,3.28
2023-11-27T16:25:57.076Z,3.30
2023-11-27T16:28:25.874Z,2.95
2023-11-27T16:30:53.417Z,3.42
2023-11-27T16:33:20.962Z,3.08
2023-11-27T16:35:48.689Z,3.17
2023-11-27T16:38:16.323Z,3.38
2023-11-27T16:40:44.087Z,3.90
2023-11-27T16:43:12.099Z,3.42
2023-11-27T16:45:39.682Z,3.40
2023-11-27T16:48:08.263Z,4.40
2023-11-27T16:50:36.450Z,3.28
2023-11-27T16:53:04.542Z,3.20
2023-11-27T16:55:33.056Z,3.50
2023-11-27T16:58:06.342Z,3.58
2023-11-27T17:00:34.420Z,3.35
2023-11-27T17:03:04.729Z,3.42
2023-11-27T17:05:33.444Z,3.65
2023-11-27T17:08:01.410Z,4.13
2023-11-27T17:10:31.537Z,5.03
2023-11-27T17:12:59.815Z,4.05
2023-11-27T17:15:27.496Z,3.75
2023-11-27T17:17:55.301Z,3.63
2023-11-27T17:20:23.707Z,3.30
2023-11-27T17:23:00.799Z,3.30
2023-11-27T17:25:35.584Z,3.38
2023-11-27T17:28:04.472Z,3.38
2023-11-27T17:30:32.044Z,3.63
2023-11-27T17:32:59.606Z,3.55
2023-11-27T17:35:27.258Z,3.42
2023-11-27T17:37:54.782Z,3.65
2023-11-27T17:40:22.250Z,3.95
2023-11-27T17:42:50.222Z,3.63
2023-11-27T17:45:17.973Z,4.30
2023-11-27T17:47:46.431Z,4.47
2023-11-27T17:50:15.428Z,4.45
2023-11-27T17:52:46.194Z,4.20
2023-11-27T17:55:16.852Z,4.13
2023-11-27T17:57:46.774Z,4.30
2023-11-27T18:00:18.179Z,3.63
2023-11-27T18:02:49.515Z,3.78
2023-11-27T18:05:23.662Z,2.97
2023-11-27T18:07:52.186Z,3.17
2023-11-27T18:10:19.893Z,2.67
2023-11-27T18:12:48.319Z,2.65
2023-11-27T18:15:19.959Z,2.88
2023-11-27T18:17:48.209Z,2.80
2023-11-27T18:20:16.633Z,3.22
2023-11-27T18:22:45.305Z,3.25
2023-11-27T18:25:19.425Z,3.38
2023-11-27T18:27:47.596Z,2.87
2023-11-27T18:30:17.537Z,3.20
2023-11-27T18:32:45.813Z,2.95
2023-11-27T18:35:14.012Z,2.88
2023-11-27T18:37:42.457Z,3.00
2023-11-27T18:40:11.367Z,3.00
2023-11-27T18:42:42.247Z,2.60
2023-11-27T18:45:12.227Z,2.35
2023-11-27T18:47:44.283Z,2.20
2023-11-27T18:50:15.326Z,2.00
2023-11-27T18:52:44.073Z,2.65
2023-11-27T18:55:12.027Z,2.90
2023-11-27T18:57:39.835Z,2.60
2023-11-27T19:00:07.698Z,2.50
2023-11-27T19:02:35.418Z,2.30
2023-11-27T19:05:03.249Z,2.83
2023-11-27T19:07:30.939Z,2.58
2023-11-27T19:09:58.560Z,2.78
2023-11-27T19:12:26.534Z,2.85
2023-11-27T19:14:57.200Z,2.70
2023-11-27T19:17:24.871Z,3.45
2023-11-27T19:19:52.600Z,2.60
2023-11-27T19:22:20.270Z,2.30
2023-11-27T19:24:48.671Z,2.30
2023-11-27T19:27:16.636Z,2.67
2023-11-27T19:29:48.582Z,2.70
2023-11-27T19:32:16.144Z,2.58
2023-11-27T19:34:44.292Z,2.60
2023-11-27T19:37:11.824Z,3.13
2023-11-27T19:39:39.593Z,2.70
2023-11-27T19:42:07.247Z,2.60
2023-11-27T19:44:34.843Z,2.45
2023-11-27T19:47:04.455Z,2.60
2023-11-27T19:49:32.187Z,2.75
2023-11-27T19:52:00.444Z,2.28
2023-11-27T19:54:28.093Z,2.80
2023-11-27T19:56:55.674Z,3.00
2023-11-27T19:59:24.010Z,2.55
2023-11-27T20:01:51.775Z,2.50
2023-11-27T20:04:19.639Z,2.10
2023-11-27T20:06:47.294Z,2.30
2023-11-27T20:09:17.046Z,2.80
2023-11-27T20:11:45.603Z,2.60
2023-11-27T20:14:13.409Z,2.80
2023-11-27T20:16:41.406Z,2.65
2023-11-27T20:19:10.630Z,2.92
2023-11-27T20:21:41.901Z,3.33
2023-11-27T20:24:09.857Z,3.00
2023-11-27T20:26:37.395Z,3.80
2023-11-27T20:29:08.002Z,5.32
2023-11-27T20:31:37.974Z,4.88
2023-11-27T20:34:09.654Z,3.95
2023-11-27T20:36:40.463Z,4.88
2023-11-27T20:39:11.294Z,4.60
2023-11-27T20:41:42.269Z,4.63
2023-11-27T20:44:10.390Z,5.13
2023-11-27T20:46:38.230Z,21.15
2023-11-27T20:49:06.340Z,5.00
2023-11-27T20:51:34.024Z,4.72
2023-11-27T20:54:02.050Z,4.97
2023-11-27T20:56:29.738Z,4.82
2023-11-27T20:58:59.070Z,4.68
2023-11-27T21:01:28.915Z,5.35
2023-11-27T21:03:56.985Z,7.20
2023-11-27T21:06:27.538Z,6.85
2023-11-27T21:08:55.895Z,3.35
2023-11-27T21:11:25.224Z,4.47
2023-11-27T21:13:54.139Z,5.88
2023-11-27T21:16:22.333Z,5.85
2023-11-27T21:18:50.424Z,5.93
2023-11-27T21:21:18.359Z,5.70
2023-11-27T21:23:45.867Z,6.45
2023-11-27T21:26:13.752Z,5.95
2023-11-27T21:28:44.544Z,5.88
2023-11-27T21:31:12.260Z,6.30
2023-11-27T21:33:39.860Z,6.30
2023-11-27T21:36:07.678Z,6.10
2023-11-27T21:38:35.283Z,5.57
2023-11-27T21:41:03.290Z,5.70
2023-11-27T21:43:31.331Z,5.55
2023-11-27T21:45:58.893Z,7.05
2023-11-27T21:48:26.605Z,7.43
2023-11-27T21:50:54.317Z,7.78
2023-11-27T21:53:21.951Z,7.47
2023-11-27T21:55:50.770Z,7.40
2023-11-27T21:58:18.309Z,8.27
2023-11-27T22:00:47.048Z,8.02
2023-11-27T22:03:15.978Z,8.68
2023-11-27T22:05:43.585Z,7.90
2023-11-27T22:08:11.060Z,7.32
2023-11-27T22:10:38.663Z,7.70
2023-11-27T22:13:06.956Z,8.20
2023-11-27T22:15:34.484Z,7.70
2023-11-27T22:18:02.024Z,6.85
2023-11-27T22:20:29.858Z,7.05
2023-11-27T22:22:57.455Z,8.65
2023-11-27T22:25:25.037Z,7.75
2023-11-27T22:27:52.544Z,7.05
2023-11-27T22:30:20.319Z,7.15
2023-11-27T22:32:47.782Z,7.20
2023-11-27T22:35:15.346Z,7.18
2023-11-27T22:37:42.965Z,6.03
2023-11-27T22:40:10.619Z,4.70
2023-11-27T22:42:38.765Z,5.32
2023-11-27T22:45:07.203Z,5.05
2023-11-27T22:47:34.850Z,4.43
2023-11-27T22:50:03.347Z,4.68
2023-11-27T22:52:32.673Z,5.03
2023-11-27T22:55:00.375Z,4.30
2023-11-27T22:57:28.283Z,4.30
2023-11-27T22:59:56.000Z,3.70
2023-11-27T23:02:23.749Z,4.25
2023-11-27T23:04:51.396Z,4.20
2023-11-27T23:07:19.086Z,4.32
2023-11-27T23:09:46.695Z,4.35
2023-11-27T23:12:15.402Z,4.68
2023-11-27T23:14:43.076Z,5.20
2023-11-27T23:17:10.744Z,4.60
2023-11-27T23:19:38.332Z,4.45
2023-11-27T23:22:05.954Z,5.43
2023-11-27T23:24:33.417Z,4.68
2023-11-27T23:27:00.978Z,5.10
2023-11-27T23:29:28.650Z,4.72
2023-11-27T23:31:59.180Z,4.80
2023-11-27T23:34:27.873Z,5.22
2023-11-27T23:36:55.433Z,5.30
2023-11-27T23:39:23.619Z,4.63
2023-11-27T23:41:54.165Z,4.72
2023-11-27T23:44:21.952Z,5.40
2023-11-27T23:46:52.265Z,4.90
2023-11-27T23:49:20.761Z,5.00
2023-11-27T23:51:48.306Z,5.40
2023-11-27T23:54:15.844Z,5.68
2023-11-27T23:56:43.316Z,5.15
2023-11-27T23:59:10.934Z,5.47
